sensor_id;sensor_type;location;lat;lon;timestamp;temperature;humidity
44121;DHT22;29783;52.504;13.478;2023-10-09T00:00:15;10.70;82.40
44121;DHT22;29783;52.504;13.478;2023-10-09T00:03:01;10.60;82.40
44121;DHT22;29783;52.504;13.478;2023-10-09T00:05:29;10.50;82.50
44121;DHT22;29783;52.504;13.478;2023-10-09T00:08:12;10.50;83.40
44121;DHT22;29783;52.504;13.478;2023-10-09T00:10:57;10.50;82.20
44121;DHT22;29783;52.504;13.478;2023-10-09T00:13:42;10.60;82.40
44121;DHT22;29783;52.504;13.478;2023-10-09T00:16:15;10.60;83.20
44121;DHT22;29783;52.504;13.478;2023-10-09T00:18:42;10.50;83.40
44121;DHT22;29783;52.504;13.478;2023-10-09T00:21:18;10.50;84.30
44121;DHT22;29783;52.504;13.478;2023-10-09T00:23:47;10.50;84.40
44121;DHT22;29783;52.504;13.478;2023-10-09T00:26:25;10.50;84.50
44121;DHT22;29783;52.504;13.478;2023-10-09T00:28:51;10.40;85.70
44121;DHT22;29783;52.504;13.478;2023-10-09T00:31:20;10.30;85.90
44121;DHT22;29783;52.504;13.478;2023-10-09T00:33:56;10.30;86.40
44121;DHT22;29783;52.504;13.478;2023-10-09T00:36:21;10.30;86.60
44121;DHT22;29783;52.504;13.478;2023-10-09T00:38:53;10.20;87.10
44121;DHT22;29783;52.504;13.478;2023-10-09T00:41:19;10.20;87.70
44121;DHT22;29783;52.504;13.478;2023-10-09T00:43:47;10.20;88.20
44121;DHT22;29783;52.504;13.478;2023-10-09T00:46:17;10.20;88.40
44121;DHT22;29783;52.504;13.478;2023-10-09T00:48:56;10.10;88.60
44121;DHT22;29783;52.504;13.478;2023-10-09T00:51:24;10.00;88.40
44121;DHT22;29783;52.504;13.478;2023-10-09T00:53:56;10.00;88.40
44121;DHT22;29783;52.504;13.478;2023-10-09T00:56:49;10.00;88.50
44121;DHT22;29783;52.504;13.478;2023-10-09T00:59:23;10.00;88.90
44121;DHT22;29783;52.504;13.478;2023-10-09T01:01:50;9.90;89.20
44121;DHT22;29783;52.504;13.478;2023-10-09T01:04:24;9.90;89.50
44121;DHT22;29783;52.504;13.478;2023-10-09T01:06:51;9.90;89.40
44121;DHT22;29783;52.504;13.478;2023-10-09T01:09:34;9.80;90.00
44121;DHT22;29783;52.504;13.478;2023-10-09T01:12:04;9.80;90.30
44121;DHT22;29783;52.504;13.478;2023-10-09T01:14:31;9.80;90.40
44121;DHT22;29783;52.504;13.478;2023-10-09T01:17:02;9.90;90.70
44121;DHT22;29783;52.504;13.478;2023-10-09T01:19:28;9.90;90.70
44121;DHT22;29783;52.504;13.478;2023-10-09T01:21:56;9.90;90.50
44121;DHT22;29783;52.504;13.478;2023-10-09T01:24:29;9.90;90.60
44121;DHT22;29783;52.504;13.478;2023-10-09T01:26:57;9.90;90.80
44121;DHT22;29783;52.504;13.478;2023-10-09T01:29:25;9.90;91.10
44121;DHT22;29783;52.504;13.478;2023-10-09T01:31:55;9.90;91.30
44121;DHT22;29783;52.504;13.478;2023-10-09T01:36:53;9.80;91.20
44121;DHT22;29783;52.504;13.478;2023-10-09T01:39:22;10.00;91.40
44121;DHT22;29783;52.504;13.478;2023-10-09T01:41:56;9.90;91.80
44121;DHT22;29783;52.504;13.478;2023-10-09T01:44:28;9.90;91.80
44121;DHT22;29783;52.504;13.478;2023-10-09T01:46:56;9.90;91.70
44121;DHT22;29783;52.504;13.478;2023-10-09T01:49:24;9.90;91.90
44121;DHT22;29783;52.504;13.478;2023-10-09T01:51:58;9.90;92.00
44121;DHT22;29783;52.504;13.478;2023-10-09T01:54:27;9.80;91.70
44121;DHT22;29783;52.504;13.478;2023-10-09T01:57:06;9.80;91.50
44121;DHT22;29783;52.504;13.478;2023-10-09T01:59:44;9.80;91.30
44121;DHT22;29783;52.504;13.478;2023-10-09T02:02:13;9.90;91.30
44121;DHT22;29783;52.504;13.478;2023-10-09T02:04:45;9.80;91.30
44121;DHT22;29783;52.504;13.478;2023-10-09T02:07:11;9.80;91.20
44121;DHT22;29783;52.504;13.478;2023-10-09T02:09:38;9.90;91.20
44121;DHT22;29783;52.504;13.478;2023-10-09T02:12:11;9.80;91.30
44121;DHT22;29783;52.504;13.478;2023-10-09T02:14:37;9.80;91.50
44121;DHT22;29783;52.504;13.478;2023-10-09T02:17:07;9.90;91.70
44121;DHT22;29783;52.504;13.478;2023-10-09T02:19:44;9.90;91.90
44121;DHT22;29783;52.504;13.478;2023-10-09T02:22:14;9.80;91.90
44121;DHT22;29783;52.504;13.478;2023-10-09T02:24:41;9.80;92.10
44121;DHT22;29783;52.504;13.478;2023-10-09T02:27:15;9.80;92.20
44121;DHT22;29783;52.504;13.478;2023-10-09T02:30:00;9.80;92.40
44121;DHT22;29783;52.504;13.478;2023-10-09T02:32:33;9.80;92.50
44121;DHT22;29783;52.504;13.478;2023-10-09T02:35:01;9.80;92.30
44121;DHT22;29783;52.504;13.478;2023-10-09T02:37:34;9.80;92.50
44121;DHT22;29783;52.504;13.478;2023-10-09T02:40:04;9.90;92.60
44121;DHT22;29783;52.504;13.478;2023-10-09T02:42:34;9.90;92.60
44121;DHT22;29783;52.504;13.478;2023-10-09T02:45:06;9.90;92.80
44121;DHT22;29783;52.504;13.478;2023-10-09T02:47:36;9.80;92.70
44121;DHT22;29783;52.504;13.478;2023-10-09T02:50:05;9.80;92.60
44121;DHT22;29783;52.504;13.478;2023-10-09T02:52:46;9.80;92.50
44121;DHT22;29783;52.504;13.478;2023-10-09T02:55:13;9.90;92.70
44121;DHT22;29783;52.504;13.478;2023-10-09T02:57:55;9.90;92.80
44121;DHT22;29783;52.504;13.478;2023-10-09T03:00:31;10.00;93.10
44121;DHT22;29783;52.504;13.478;2023-10-09T03:03:01;9.90;93.00
44121;DHT22;29783;52.504;13.478;2023-10-09T03:05:32;9.90;93.10
44121;DHT22;29783;52.504;13.478;2023-10-09T03:07:57;9.90;93.30
44121;DHT22;29783;52.504;13.478;2023-10-09T03:10:24;9.90;93.30
44121;DHT22;29783;52.504;13.478;2023-10-09T03:12:51;9.90;93.40
44121;DHT22;29783;52.504;13.478;2023-10-09T03:15:22;9.90;93.50
44121;DHT22;29783;52.504;13.478;2023-10-09T03:17:47;9.80;93.50
44121;DHT22;29783;52.504;13.478;2023-10-09T03:20:14;9.80;93.50
44121;DHT22;29783;52.504;13.478;2023-10-09T03:22:40;9.80;93.60
44121;DHT22;29783;52.504;13.478;2023-10-09T03:25:07;9.80;93.80
44121;DHT22;29783;52.504;13.478;2023-10-09T03:27:43;9.90;93.90
44121;DHT22;29783;52.504;13.478;2023-10-09T03:30:13;9.90;94.00
44121;DHT22;29783;52.504;13.478;2023-10-09T03:32:44;9.90;94.10
44121;DHT22;29783;52.504;13.478;2023-10-09T03:35:12;9.90;94.20
44121;DHT22;29783;52.504;13.478;2023-10-09T03:37:42;9.90;94.20
44121;DHT22;29783;52.504;13.478;2023-10-09T03:40:09;10.00;94.20
44121;DHT22;29783;52.504;13.478;2023-10-09T03:42:41;9.90;94.10
44121;DHT22;29783;52.504;13.478;2023-10-09T03:45:08;9.90;94.00
44121;DHT22;29783;52.504;13.478;2023-10-09T03:47:43;9.90;93.90
44121;DHT22;29783;52.504;13.478;2023-10-09T03:50:13;9.90;93.90
44121;DHT22;29783;52.504;13.478;2023-10-09T03:52:57;9.90;93.90
44121;DHT22;29783;52.504;13.478;2023-10-09T03:55:23;9.90;93.80
44121;DHT22;29783;52.504;13.478;2023-10-09T03:57:53;9.80;93.70
44121;DHT22;29783;52.504;13.478;2023-10-09T04:00:18;9.80;93.90
44121;DHT22;29783;52.504;13.478;2023-10-09T04:02:52;9.70;93.90
44121;DHT22;29783;52.504;13.478;2023-10-09T04:05:18;9.80;93.90
44121;DHT22;29783;52.504;13.478;2023-10-09T04:07:43;9.70;94.00
44121;DHT22;29783;52.504;13.478;2023-10-09T04:10:09;9.70;94.10
44121;DHT22;29783;52.504;13.478;2023-10-09T04:12:58;9.80;94.30
44121;DHT22;29783;52.504;13.478;2023-10-09T04:15:24;10.00;94.10
44121;DHT22;29783;52.504;13.478;2023-10-09T04:17:49;10.00;93.90
44121;DHT22;29783;52.504;13.478;2023-10-09T04:20:17;10.00;93.70
44121;DHT22;29783;52.504;13.478;2023-10-09T04:22:43;10.00;93.60
44121;DHT22;29783;52.504;13.478;2023-10-09T04:25:20;10.00;93.50
44121;DHT22;29783;52.504;13.478;2023-10-09T04:28:00;10.00;93.50
44121;DHT22;29783;52.504;13.478;2023-10-09T04:30:39;10.00;93.50
44121;DHT22;29783;52.504;13.478;2023-10-09T04:33:12;9.90;93.80
44121;DHT22;29783;52.504;13.478;2023-10-09T04:36:03;9.90;93.90
44121;DHT22;29783;52.504;13.478;2023-10-09T04:38:44;9.80;94.10
44121;DHT22;29783;52.504;13.478;2023-10-09T04:41:30;9.80;94.20
44121;DHT22;29783;52.504;13.478;2023-10-09T04:44:12;9.80;94.20
44121;DHT22;29783;52.504;13.478;2023-10-09T04:46:55;9.80;94.40
44121;DHT22;29783;52.504;13.478;2023-10-09T04:49:37;9.80;94.20
44121;DHT22;29783;52.504;13.478;2023-10-09T04:52:27;9.80;94.10
44121;DHT22;29783;52.504;13.478;2023-10-09T04:54:59;9.80;94.10
44121;DHT22;29783;52.504;13.478;2023-10-09T04:57:44;9.80;94.00
44121;DHT22;29783;52.504;13.478;2023-10-09T05:00:14;9.80;94.00
44121;DHT22;29783;52.504;13.478;2023-10-09T05:03:01;9.80;94.00
44121;DHT22;29783;52.504;13.478;2023-10-09T05:05:37;9.70;94.10
44121;DHT22;29783;52.504;13.478;2023-10-09T05:08:15;9.80;94.20
44121;DHT22;29783;52.504;13.478;2023-10-09T05:10:45;9.80;94.20
44121;DHT22;29783;52.504;13.478;2023-10-09T05:13:35;9.80;94.30
44121;DHT22;29783;52.504;13.478;2023-10-09T05:18:51;9.80;93.90
44121;DHT22;29783;52.504;13.478;2023-10-09T05:21:36;9.80;94.00
44121;DHT22;29783;52.504;13.478;2023-10-09T05:24:11;9.70;94.10
44121;DHT22;29783;52.504;13.478;2023-10-09T05:26:47;9.70;94.30
44121;DHT22;29783;52.504;13.478;2023-10-09T05:29:20;9.70;94.40
44121;DHT22;29783;52.504;13.478;2023-10-09T05:31:47;9.70;94.30
44121;DHT22;29783;52.504;13.478;2023-10-09T05:34:23;9.70;94.30
44121;DHT22;29783;52.504;13.478;2023-10-09T05:36:51;9.80;94.30
44121;DHT22;29783;52.504;13.478;2023-10-09T05:39:17;9.80;94.30
44121;DHT22;29783;52.504;13.478;2023-10-09T05:42:06;9.80;94.30
44121;DHT22;29783;52.504;13.478;2023-10-09T05:44:43;9.80;94.20
44121;DHT22;29783;52.504;13.478;2023-10-09T05:47:41;9.80;94.00
44121;DHT22;29783;52.504;13.478;2023-10-09T05:50:30;9.80;94.00
44121;DHT22;29783;52.504;13.478;2023-10-09T05:53:01;9.70;93.80
44121;DHT22;29783;52.504;13.478;2023-10-09T05:55:27;9.80;94.00
44121;DHT22;29783;52.504;13.478;2023-10-09T05:58:12;9.80;93.90
44121;DHT22;29783;52.504;13.478;2023-10-09T06:00:56;9.80;93.90
44121;DHT22;29783;52.504;13.478;2023-10-09T06:03:39;9.80;94.10
44121;DHT22;29783;52.504;13.478;2023-10-09T06:06:14;9.90;94.00
44121;DHT22;29783;52.504;13.478;2023-10-09T06:09:07;9.90;93.70
44121;DHT22;29783;52.504;13.478;2023-10-09T06:11:39;9.90;93.20
44121;DHT22;29783;52.504;13.478;2023-10-09T06:14:05;9.80;93.20
44121;DHT22;29783;52.504;13.478;2023-10-09T06:16:38;9.80;93.30
44121;DHT22;29783;52.504;13.478;2023-10-09T06:19:07;9.80;93.40
44121;DHT22;29783;52.504;13.478;2023-10-09T06:21:37;9.80;93.20
44121;DHT22;29783;52.504;13.478;2023-10-09T06:24:26;9.90;93.00
44121;DHT22;29783;52.504;13.478;2023-10-09T06:26:59;9.90;92.70
44121;DHT22;29783;52.504;13.478;2023-10-09T06:29:29;9.90;92.70
44121;DHT22;29783;52.504;13.478;2023-10-09T06:32:07;10.00;92.60
44121;DHT22;29783;52.504;13.478;2023-10-09T06:34:58;10.00;92.90
44121;DHT22;29783;52.504;13.478;2023-10-09T06:37:47;10.00;92.90
44121;DHT22;29783;52.504;13.478;2023-10-09T06:40:39;10.10;92.80
44121;DHT22;29783;52.504;13.478;2023-10-09T06:43:17;10.10;92.20
44121;DHT22;29783;52.504;13.478;2023-10-09T06:45:56;10.20;92.50
44121;DHT22;29783;52.504;13.478;2023-10-09T06:48:40;10.30;92.00
44121;DHT22;29783;52.504;13.478;2023-10-09T06:51:10;10.30;91.60
44121;DHT22;29783;52.504;13.478;2023-10-09T06:53:54;10.40;91.10
44121;DHT22;29783;52.504;13.478;2023-10-09T06:56:27;10.40;90.70
44121;DHT22;29783;52.504;13.478;2023-10-09T06:59:04;10.50;90.90
44121;DHT22;29783;52.504;13.478;2023-10-09T07:01:40;10.70;90.20
44121;DHT22;29783;52.504;13.478;2023-10-09T07:04:10;10.70;89.90
44121;DHT22;29783;52.504;13.478;2023-10-09T07:06:47;10.80;89.70
44121;DHT22;29783;52.504;13.478;2023-10-09T07:09:14;10.90;89.50
44121;DHT22;29783;52.504;13.478;2023-10-09T07:11:42;10.80;88.80
44121;DHT22;29783;52.504;13.478;2023-10-09T07:14:16;10.90;88.80
44121;DHT22;29783;52.504;13.478;2023-10-09T07:16:58;11.00;88.90
44121;DHT22;29783;52.504;13.478;2023-10-09T07:19:25;11.10;89.00
44121;DHT22;29783;52.504;13.478;2023-10-09T07:22:03;11.10;88.70
44121;DHT22;29783;52.504;13.478;2023-10-09T07:24:30;11.20;87.90
44121;DHT22;29783;52.504;13.478;2023-10-09T07:27:17;11.20;87.80
44121;DHT22;29783;52.504;13.478;2023-10-09T07:30:03;11.20;88.20
44121;DHT22;29783;52.504;13.478;2023-10-09T07:32:49;11.30;87.80
44121;DHT22;29783;52.504;13.478;2023-10-09T07:35:18;11.30;87.70
44121;DHT22;29783;52.504;13.478;2023-10-09T07:38:03;11.40;88.00
44121;DHT22;29783;52.504;13.478;2023-10-09T07:40:29;11.40;88.00
44121;DHT22;29783;52.504;13.478;2023-10-09T07:42:57;11.50;87.60
44121;DHT22;29783;52.504;13.478;2023-10-09T07:45:30;11.50;88.20
44121;DHT22;29783;52.504;13.478;2023-10-09T07:47:55;11.60;87.70
44121;DHT22;29783;52.504;13.478;2023-10-09T07:50:38;11.60;87.10
44121;DHT22;29783;52.504;13.478;2023-10-09T07:53:06;11.60;86.90
44121;DHT22;29783;52.504;13.478;2023-10-09T07:55:51;11.50;87.60
44121;DHT22;29783;52.504;13.478;2023-10-09T07:58:21;11.50;88.50
44121;DHT22;29783;52.504;13.478;2023-10-09T08:00:57;11.40;88.60
44121;DHT22;29783;52.504;13.478;2023-10-09T08:03:26;11.60;88.80
44121;DHT22;29783;52.504;13.478;2023-10-09T08:05:58;11.60;87.90
44121;DHT22;29783;52.504;13.478;2023-10-09T08:08:43;11.70;87.40
44121;DHT22;29783;52.504;13.478;2023-10-09T08:11:32;11.60;86.50
44121;DHT22;29783;52.504;13.478;2023-10-09T08:14:20;11.70;86.80
44121;DHT22;29783;52.504;13.478;2023-10-09T08:17:01;11.70;86.30
44121;DHT22;29783;52.504;13.478;2023-10-09T08:19:47;11.70;87.30
44121;DHT22;29783;52.504;13.478;2023-10-09T08:22:26;11.70;86.80
44121;DHT22;29783;52.504;13.478;2023-10-09T08:24:53;11.70;86.80
44121;DHT22;29783;52.504;13.478;2023-10-09T08:27:25;11.80;86.90
44121;DHT22;29783;52.504;13.478;2023-10-09T08:30:14;11.70;87.60
44121;DHT22;29783;52.504;13.478;2023-10-09T08:32:39;11.70;87.90
44121;DHT22;29783;52.504;13.478;2023-10-09T08:35:06;11.90;87.10
44121;DHT22;29783;52.504;13.478;2023-10-09T08:37:56;11.80;86.70
44121;DHT22;29783;52.504;13.478;2023-10-09T08:43:14;11.70;87.20
44121;DHT22;29783;52.504;13.478;2023-10-09T08:45:46;11.70;87.70
44121;DHT22;29783;52.504;13.478;2023-10-09T08:48:12;11.70;87.00
44121;DHT22;29783;52.504;13.478;2023-10-09T08:50:41;11.70;87.00
44121;DHT22;29783;52.504;13.478;2023-10-09T08:53:10;11.70;87.50
44121;DHT22;29783;52.504;13.478;2023-10-09T08:55:40;11.70;87.20
44121;DHT22;29783;52.504;13.478;2023-10-09T08:58:06;11.70;87.80
44121;DHT22;29783;52.504;13.478;2023-10-09T09:00:53;11.70;87.90
44121;DHT22;29783;52.504;13.478;2023-10-09T09:03:21;11.70;87.40
44121;DHT22;29783;52.504;13.478;2023-10-09T09:06:01;11.80;87.10
44121;DHT22;29783;52.504;13.478;2023-10-09T09:08:28;11.80;87.10
44121;DHT22;29783;52.504;13.478;2023-10-09T09:11:12;12.00;86.40
44121;DHT22;29783;52.504;13.478;2023-10-09T09:13:42;12.10;85.60
44121;DHT22;29783;52.504;13.478;2023-10-09T09:16:21;12.10;86.40
44121;DHT22;29783;52.504;13.478;2023-10-09T09:18:58;12.30;84.90
44121;DHT22;29783;52.504;13.478;2023-10-09T09:21:41;12.30;85.00
44121;DHT22;29783;52.504;13.478;2023-10-09T09:24:10;12.40;85.30
44121;DHT22;29783;52.504;13.478;2023-10-09T09:26:52;12.50;84.00
44121;DHT22;29783;52.504;13.478;2023-10-09T09:32:03;12.60;83.30
44121;DHT22;29783;52.504;13.478;2023-10-09T09:34:53;12.50;83.50
44121;DHT22;29783;52.504;13.478;2023-10-09T09:37:31;12.60;84.10
44121;DHT22;29783;52.504;13.478;2023-10-09T09:40:04;12.40;84.60
44121;DHT22;29783;52.504;13.478;2023-10-09T09:42:43;12.40;83.80
44121;DHT22;29783;52.504;13.478;2023-10-09T09:45:14;12.50;84.70
44121;DHT22;29783;52.504;13.478;2023-10-09T09:47:44;12.70;84.40
44121;DHT22;29783;52.504;13.478;2023-10-09T09:50:18;12.60;83.80
44121;DHT22;29783;52.504;13.478;2023-10-09T09:52:55;12.60;84.50
44121;DHT22;29783;52.504;13.478;2023-10-09T09:55:25;12.50;84.80
44121;DHT22;29783;52.504;13.478;2023-10-09T09:57:56;12.40;84.60
44121;DHT22;29783;52.504;13.478;2023-10-09T10:00:25;12.60;83.30
44121;DHT22;29783;52.504;13.478;2023-10-09T10:03:09;12.60;83.20
44121;DHT22;29783;52.504;13.478;2023-10-09T10:05:37;12.50;83.60
44121;DHT22;29783;52.504;13.478;2023-10-09T10:08:03;12.30;83.30
44121;DHT22;29783;52.504;13.478;2023-10-09T10:10:41;12.20;84.10
44121;DHT22;29783;52.504;13.478;2023-10-09T10:21:40;12.00;85.10
44121;DHT22;29783;52.504;13.478;2023-10-09T10:27:15;12.10;85.20
44121;DHT22;29783;52.504;13.478;2023-10-09T10:33:07;12.10;85.20
44121;DHT22;29783;52.504;13.478;2023-10-09T10:35:41;12.10;85.00
44121;DHT22;29783;52.504;13.478;2023-10-09T10:38:29;12.20;84.60
44121;DHT22;29783;52.504;13.478;2023-10-09T10:41:18;12.20;84.50
44121;DHT22;29783;52.504;13.478;2023-10-09T10:43:50;12.30;83.90
44121;DHT22;29783;52.504;13.478;2023-10-09T10:46:16;12.50;83.60
44121;DHT22;29783;52.504;13.478;2023-10-09T10:49:07;12.60;83.30
44121;DHT22;29783;52.504;13.478;2023-10-09T10:51:51;12.70;83.30
44121;DHT22;29783;52.504;13.478;2023-10-09T10:54:27;12.90;81.90
44121;DHT22;29783;52.504;13.478;2023-10-09T10:56:58;12.80;81.80
44121;DHT22;29783;52.504;13.478;2023-10-09T10:59:32;12.90;82.30
44121;DHT22;29783;52.504;13.478;2023-10-09T11:02:10;13.10;81.60
44121;DHT22;29783;52.504;13.478;2023-10-09T11:04:36;13.20;80.40
44121;DHT22;29783;52.504;13.478;2023-10-09T11:07:02;13.20;80.70
44121;DHT22;29783;52.504;13.478;2023-10-09T11:09:57;13.30;80.50
44121;DHT22;29783;52.504;13.478;2023-10-09T11:15:31;13.00;81.30
44121;DHT22;29783;52.504;13.478;2023-10-09T11:18:07;13.00;81.30
44121;DHT22;29783;52.504;13.478;2023-10-09T11:20:37;13.10;80.80
44121;DHT22;29783;52.504;13.478;2023-10-09T11:23:04;13.10;80.20
44121;DHT22;29783;52.504;13.478;2023-10-09T11:25:38;13.20;80.10
44121;DHT22;29783;52.504;13.478;2023-10-09T11:28:22;13.40;79.50
44121;DHT22;29783;52.504;13.478;2023-10-09T11:31:20;13.40;79.80
44121;DHT22;29783;52.504;13.478;2023-10-09T11:33:50;13.30;79.00
44121;DHT22;29783;52.504;13.478;2023-10-09T11:36:17;13.20;79.60
44121;DHT22;29783;52.504;13.478;2023-10-09T11:38:47;13.00;80.70
44121;DHT22;29783;52.504;13.478;2023-10-09T11:41:19;12.90;81.20
44121;DHT22;29783;52.504;13.478;2023-10-09T11:43:54;13.00;81.60
44121;DHT22;29783;52.504;13.478;2023-10-09T11:46:23;13.10;81.50
44121;DHT22;29783;52.504;13.478;2023-10-09T11:49:08;13.20;82.20
44121;DHT22;29783;52.504;13.478;2023-10-09T11:51:52;13.20;82.10
44121;DHT22;29783;52.504;13.478;2023-10-09T11:54:49;13.30;80.60
44121;DHT22;29783;52.504;13.478;2023-10-09T11:57:15;13.70;80.60
44121;DHT22;29783;52.504;13.478;2023-10-09T11:59:42;14.30;77.90
44121;DHT22;29783;52.504;13.478;2023-10-09T12:02:09;14.30;77.30
44121;DHT22;29783;52.504;13.478;2023-10-09T12:04:41;14.10;75.90
44121;DHT22;29783;52.504;13.478;2023-10-09T12:07:10;13.90;77.10
44121;DHT22;29783;52.504;13.478;2023-10-09T12:09:39;13.70;78.40
44121;DHT22;29783;52.504;13.478;2023-10-09T12:12:07;13.70;79.10
44121;DHT22;29783;52.504;13.478;2023-10-09T12:14:33;13.80;78.50
44121;DHT22;29783;52.504;13.478;2023-10-09T12:17:00;14.10;77.60
44121;DHT22;29783;52.504;13.478;2023-10-09T12:19:39;14.00;77.10
44121;DHT22;29783;52.504;13.478;2023-10-09T12:22:07;14.00;77.30
44121;DHT22;29783;52.504;13.478;2023-10-09T12:24:41;14.00;78.20
44121;DHT22;29783;52.504;13.478;2023-10-09T12:27:09;14.10;77.70
44121;DHT22;29783;52.504;13.478;2023-10-09T12:29:37;14.00;77.70
44121;DHT22;29783;52.504;13.478;2023-10-09T12:32:03;13.80;78.10
44121;DHT22;29783;52.504;13.478;2023-10-09T12:34:29;13.50;78.90
44121;DHT22;29783;52.504;13.478;2023-10-09T12:36:59;13.30;79.10
44121;DHT22;29783;52.504;13.478;2023-10-09T12:39:27;13.00;80.90
44121;DHT22;29783;52.504;13.478;2023-10-09T12:42:02;13.00;81.20
44121;DHT22;29783;52.504;13.478;2023-10-09T12:44:34;12.90;81.60
44121;DHT22;29783;52.504;13.478;2023-10-09T12:47:08;12.90;81.60
44121;DHT22;29783;52.504;13.478;2023-10-09T12:49:36;12.90;82.20
44121;DHT22;29783;52.504;13.478;2023-10-09T12:52:05;13.10;81.60
44121;DHT22;29783;52.504;13.478;2023-10-09T12:54:41;13.20;81.50
44121;DHT22;29783;52.504;13.478;2023-10-09T12:57:07;13.20;81.20
44121;DHT22;29783;52.504;13.478;2023-10-09T12:59:39;13.00;81.50
44121;DHT22;29783;52.504;13.478;2023-10-09T13:02:13;12.80;81.50
44121;DHT22;29783;52.504;13.478;2023-10-09T13:04:39;12.90;81.90
44121;DHT22;29783;52.504;13.478;2023-10-09T13:07:07;12.90;81.70
44121;DHT22;29783;52.504;13.478;2023-10-09T13:09:33;12.90;82.40
44121;DHT22;29783;52.504;13.478;2023-10-09T13:12:08;13.10;80.90
44121;DHT22;29783;52.504;13.478;2023-10-09T13:14:34;13.00;80.90
44121;DHT22;29783;52.504;13.478;2023-10-09T13:17:01;13.00;81.20
44121;DHT22;29783;52.504;13.478;2023-10-09T13:19:34;13.10;81.40
44121;DHT22;29783;52.504;13.478;2023-10-09T13:21:59;13.00;81.00
44121;DHT22;29783;52.504;13.478;2023-10-09T13:24:28;13.00;81.00
44121;DHT22;29783;52.504;13.478;2023-10-09T13:26:55;13.20;81.00
44121;DHT22;29783;52.504;13.478;2023-10-09T13:29:23;13.30;81.00
44121;DHT22;29783;52.504;13.478;2023-10-09T13:31:49;13.10;80.30
44121;DHT22;29783;52.504;13.478;2023-10-09T13:34:18;13.10;80.60
44121;DHT22;29783;52.504;13.478;2023-10-09T13:36:44;12.90;81.20
44121;DHT22;29783;52.504;13.478;2023-10-09T13:39:19;12.70;81.60
44121;DHT22;29783;52.504;13.478;2023-10-09T13:41:47;12.60;82.70
44121;DHT22;29783;52.504;13.478;2023-10-09T13:44:13;12.70;82.90
44121;DHT22;29783;52.504;13.478;2023-10-09T13:46:39;12.60;82.90
44121;DHT22;29783;52.504;13.478;2023-10-09T13:49:09;12.60;83.30
44121;DHT22;29783;52.504;13.478;2023-10-09T13:51:40;12.70;83.40
44121;DHT22;29783;52.504;13.478;2023-10-09T13:54:13;12.60;83.70
44121;DHT22;29783;52.504;13.478;2023-10-09T13:57:04;12.50;83.80
44121;DHT22;29783;52.504;13.478;2023-10-09T13:59:30;12.50;83.20
44121;DHT22;29783;52.504;13.478;2023-10-09T14:01:56;12.40;83.70
44121;DHT22;29783;52.504;13.478;2023-10-09T14:04:24;12.50;83.80
44121;DHT22;29783;52.504;13.478;2023-10-09T14:06:50;12.50;83.50
44121;DHT22;29783;52.504;13.478;2023-10-09T14:09:27;12.50;83.40
44121;DHT22;29783;52.504;13.478;2023-10-09T14:11:57;12.40;83.70
44121;DHT22;29783;52.504;13.478;2023-10-09T14:14:36;12.30;84.10
44121;DHT22;29783;52.504;13.478;2023-10-09T14:17:05;12.40;84.30
44121;DHT22;29783;52.504;13.478;2023-10-09T14:19:40;12.40;84.50
44121;DHT22;29783;52.504;13.478;2023-10-09T14:22:14;12.40;84.00
44121;DHT22;29783;52.504;13.478;2023-10-09T14:24:45;12.30;84.30
44121;DHT22;29783;52.504;13.478;2023-10-09T14:27:14;12.30;84.30
44121;DHT22;29783;52.504;13.478;2023-10-09T14:29:49;12.30;84.30
44121;DHT22;29783;52.504;13.478;2023-10-09T14:32:15;12.30;83.90
44121;DHT22;29783;52.504;13.478;2023-10-09T14:34:42;12.30;84.20
44121;DHT22;29783;52.504;13.478;2023-10-09T14:37:12;12.30;84.10
44121;DHT22;29783;52.504;13.478;2023-10-09T14:39:43;12.40;84.10
44121;DHT22;29783;52.504;13.478;2023-10-09T14:42:16;12.50;83.50
44121;DHT22;29783;52.504;13.478;2023-10-09T14:44:43;12.40;83.50
44121;DHT22;29783;52.504;13.478;2023-10-09T14:47:11;12.30;83.90
44121;DHT22;29783;52.504;13.478;2023-10-09T14:49:37;12.30;84.50
44121;DHT22;29783;52.504;13.478;2023-10-09T14:52:09;12.30;84.80
44121;DHT22;29783;52.504;13.478;2023-10-09T14:54:36;12.30;84.60
44121;DHT22;29783;52.504;13.478;2023-10-09T14:57:02;12.30;84.80
44121;DHT22;29783;52.504;13.478;2023-10-09T14:59:34;12.30;85.00
44121;DHT22;29783;52.504;13.478;2023-10-09T15:02:01;12.30;85.00
44121;DHT22;29783;52.504;13.478;2023-10-09T15:04:29;12.30;84.80
44121;DHT22;29783;52.504;13.478;2023-10-09T15:06:55;12.30;84.70
44121;DHT22;29783;52.504;13.478;2023-10-09T15:09:20;12.30;84.70
44121;DHT22;29783;52.504;13.478;2023-10-09T15:11:54;12.30;84.60
44121;DHT22;29783;52.504;13.478;2023-10-09T15:14:20;12.30;84.90
44121;DHT22;29783;52.504;13.478;2023-10-09T15:16:46;12.30;85.00
44121;DHT22;29783;52.504;13.478;2023-10-09T15:19:14;12.20;85.40
44121;DHT22;29783;52.504;13.478;2023-10-09T15:21:40;12.20;85.70
44121;DHT22;29783;52.504;13.478;2023-10-09T15:24:16;12.20;85.90
44121;DHT22;29783;52.504;13.478;2023-10-09T15:26:45;12.20;85.80
44121;DHT22;29783;52.504;13.478;2023-10-09T15:29:31;12.30;86.00
44121;DHT22;29783;52.504;13.478;2023-10-09T15:31:59;12.30;85.90
44121;DHT22;29783;52.504;13.478;2023-10-09T15:34:40;12.20;85.50
44121;DHT22;29783;52.504;13.478;2023-10-09T15:37:07;12.20;85.80
44121;DHT22;29783;52.504;13.478;2023-10-09T15:39:34;12.20;85.60
44121;DHT22;29783;52.504;13.478;2023-10-09T15:42:00;12.10;85.90
44121;DHT22;29783;52.504;13.478;2023-10-09T15:44:26;12.10;86.10
44121;DHT22;29783;52.504;13.478;2023-10-09T15:46:52;12.10;85.50
44121;DHT22;29783;52.504;13.478;2023-10-09T15:49:28;12.00;85.90
44121;DHT22;29783;52.504;13.478;2023-10-09T15:51:56;12.00;85.70
44121;DHT22;29783;52.504;13.478;2023-10-09T15:54:21;11.90;86.00
44121;DHT22;29783;52.504;13.478;2023-10-09T15:56:47;11.90;86.20
44121;DHT22;29783;52.504;13.478;2023-10-09T15:59:12;11.80;86.70
44121;DHT22;29783;52.504;13.478;2023-10-09T16:01:38;11.90;86.60
44121;DHT22;29783;52.504;13.478;2023-10-09T16:04:09;12.00;86.40
44121;DHT22;29783;52.504;13.478;2023-10-09T16:06:36;11.90;86.50
44121;DHT22;29783;52.504;13.478;2023-10-09T16:09:05;11.90;86.80
44121;DHT22;29783;52.504;13.478;2023-10-09T16:11:31;11.90;86.80
44121;DHT22;29783;52.504;13.478;2023-10-09T16:13:59;11.90;87.00
44121;DHT22;29783;52.504;13.478;2023-10-09T16:16:29;11.80;86.80
44121;DHT22;29783;52.504;13.478;2023-10-09T16:18:55;11.80;87.10
44121;DHT22;29783;52.504;13.478;2023-10-09T16:21:23;11.80;87.20
44121;DHT22;29783;52.504;13.478;2023-10-09T16:23:50;11.80;87.40